Bookmark and Share
Track history (hours):
 

Fjordprinsessen

Last reported at 2014-Apr-23 17:28 UTC. Time now 2014-Apr-24 05:57 UTC.
Position N 69°41' E 019°02'.

Length 30 m; draft 2.5 m.

Type: High speed craft. MMSI: 259604000.

NotesDate/timePositionNaut miles runAvg speedWind from/ knotsBaromVisibWave heightAir tempDewpointWater temp
2014-Apr-23 17:28N 69°41' E 019°02'3 2.5
2014-Apr-23 16:27N 69°39' E 018°57'3 1.1
2014-Apr-23 14:09N 69°37' E 018°54'3 3.9
2014-Apr-23 13:30N 69°39' E 018°57'0 0.0
2014-Apr-23 12:33N 69°39' E 018°57'0 0.0
2014-Apr-23 11:30N 69°39' E 018°57'0 0.0
2014-Apr-23 10:27N 69°39' E 018°57'0 0.0
2014-Apr-23 09:30N 69°39' E 018°57'0 0.0
2014-Apr-23 08:15N 69°39' E 018°57'0 0.0
2014-Apr-23 07:27N 69°39' E 018°57'3 1.6
2014-Apr-23 05:20N 69°36' E 018°52'3 4.3
2014-Apr-23 04:31N 69°39' E 018°57'0 0.0
2014-Apr-23 03:31N 69°39' E 018°57'0 0.0
2014-Apr-23 02:25N 69°39' E 018°57'0 0.0
2014-Apr-23 01:33N 69°39' E 018°57'0 0.0
2014-Apr-23 00:24N 69°39' E 018°57'0 0.0
2014-Apr-22 23:33N 69°39' E 018°57'0 0.0
2014-Apr-22 22:27N 69°39' E 018°57'0 0.0
2014-Apr-22 21:27N 69°39' E 018°57'0 0.0
2014-Apr-22 20:29N 69°39' E 018°57'0 0.0
2014-Apr-22 19:29N 69°39' E 018°57'0 0.0
2014-Apr-22 18:33N 69°39' E 018°57'4 0.9
2014-Apr-22 14:11N 69°42' E 019°03'4 4.7
2014-Apr-22 13:23N 69°39' E 018°57'0 0.0
2014-Apr-22 12:23N 69°39' E 018°57'0 0.0
2014-Apr-22 11:32N 69°39' E 018°57'0 0.0
2014-Apr-22 10:29N 69°39' E 018°57'0 0.0
2014-Apr-22 09:32N 69°39' E 018°57'0 0.0
2014-Apr-22 08:29N 69°39' E 018°57'0 0.0
2014-Apr-21 20:34N 69°39' E 018°58'3 1.6
2014-Apr-21 18:29N 69°36' E 018°52'3 0.5
2014-Apr-21 11:25N 69°39' E 018°57'0 0.0
2014-Apr-21 10:31N 69°39' E 018°57'0 0.0
2014-Apr-21 09:31N 69°39' E 018°57'0 0.0
2014-Apr-21 08:31N 69°39' E 018°57'0 0.0
2014-Apr-21 07:19N 69°39' E 018°57'0 0.0
2014-Apr-21 06:32N 69°39' E 018°57'0 0.0
2014-Apr-21 05:28N 69°39' E 018°57'0 0.0
2014-Apr-21 04:31N 69°39' E 018°57'0 0.0
2014-Apr-21 03:28N 69°39' E 018°57'0 0.0
2014-Apr-21 02:31N 69°39' E 018°57'0 0.0
2014-Apr-21 01:31N 69°39' E 018°57'0 0.0
2014-Apr-21 00:25N 69°39' E 018°57'0 0.0
2014-Apr-20 23:31N 69°39' E 018°57'0 0.0
2014-Apr-20 22:31N 69°39' E 018°57'0 0.0
2014-Apr-20 21:31N 69°39' E 018°57'0 0.0
2014-Apr-20 20:28N 69°39' E 018°57'0 0.0
2014-Apr-20 19:31N 69°39' E 018°57'0 0.0
2014-Apr-20 18:28N 69°39' E 018°57'0 0.0
2014-Apr-20 17:31N 69°39' E 018°57'0 0.0
2014-Apr-20 16:31N 69°39' E 018°57'0 0.0
2014-Apr-20 15:31N 69°39' E 018°57'0 0.0
2014-Apr-20 14:34N 69°39' E 018°57'0 0.0
2014-Apr-20 13:34N 69°39' E 018°57'0 0.0
2014-Apr-20 12:33N 69°39' E 018°57'0 0.0
2014-Apr-20 11:33N 69°39' E 018°57'0 0.0
2014-Apr-20 10:33N 69°39' E 018°57'0 0.0
2014-Apr-20 09:33N 69°39' E 018°57'0 0.0
2014-Apr-20 08:30N 69°39' E 018°57'0 0.0
2014-Apr-20 07:30N 69°39' E 018°57'0 0.0
2014-Apr-20 06:33N 69°39' E 018°57'0 0.0
2014-Apr-20 05:33N 69°39' E 018°57'0 0.0
2014-Apr-20 04:33N 69°39' E 018°57'0 0.0
2014-Apr-20 03:30N 69°39' E 018°57'0 0.0
2014-Apr-20 02:27N 69°39' E 018°57'0 0.0
2014-Apr-20 01:33N 69°39' E 018°57'0 0.0
2014-Apr-20 00:33N 69°39' E 018°57'0 0.0
2014-Apr-19 23:30N 69°39' E 018°57'0 0.0
2014-Apr-19 22:33N 69°39' E 018°57'0 0.0
2014-Apr-19 21:33N 69°39' E 018°57'0 0.0
2014-Apr-19 20:33N 69°39' E 018°57'0 0.0
2014-Apr-19 19:26N 69°39' E 018°57'0 0.0
2014-Apr-19 18:32N 69°39' E 018°57'0 0.0
2014-Apr-19 17:32N 69°39' E 018°57'0 0.0
2014-Apr-19 16:32N 69°39' E 018°57'0 0.0
2014-Apr-19 15:32N 69°39' E 018°57'0 0.0
2014-Apr-19 14:29N 69°39' E 018°57'0 0.0
2014-Apr-19 13:31N 69°39' E 018°57'0 0.0
2014-Apr-19 12:28N 69°39' E 018°57'0 0.0
2014-Apr-19 11:31N 69°39' E 018°57'0 0.0
2014-Apr-19 10:31N 69°39' E 018°57'0 0.0
2014-Apr-19 09:31N 69°39' E 018°57'0 0.0
2014-Apr-19 08:31N 69°39' E 018°57'0 0.0
2014-Apr-19 07:28N 69°39' E 018°57'0 0.0
2014-Apr-19 06:31N 69°39' E 018°57'0 0.0
2014-Apr-19 05:31N 69°39' E 018°57'0 0.0
2014-Apr-19 04:31N 69°39' E 018°57'0 0.0
2014-Apr-19 03:28N 69°39' E 018°57'0 0.0
2014-Apr-19 02:31N 69°39' E 018°57'0 0.0
2014-Apr-19 01:31N 69°39' E 018°57'0 0.0
2014-Apr-19 00:31N 69°39' E 018°57'0 0.0
2014-Apr-18 23:31N 69°39' E 018°57'0 0.0
2014-Apr-18 22:28N 69°39' E 018°57'0 0.0
2014-Apr-18 21:31N 69°39' E 018°57'0 0.0
2014-Apr-18 20:31N 69°39' E 018°57'0 0.0
2014-Apr-18 19:33N 69°39' E 018°57'0 0.0
2014-Apr-18 18:33N 69°39' E 018°57'0 0.0
2014-Apr-18 17:27N 69°39' E 018°57'0 0.0
2014-Apr-18 16:30N 69°39' E 018°57'0 0.0
2014-Apr-18 15:33N 69°39' E 018°57'0 0.0
2014-Apr-18 14:30N 69°39' E 018°57'0 0.0
2014-Apr-18 13:33N 69°39' E 018°57'0 0.0
2014-Apr-18 12:30N 69°39' E 018°57'0 0.0
2014-Apr-18 11:33N 69°39' E 018°57'0 0.0
2014-Apr-18 10:33N 69°39' E 018°57'0 0.0
2014-Apr-18 09:33N 69°39' E 018°57'0 0.0
2014-Apr-18 08:33N 69°39' E 018°57'0 0.0
2014-Apr-18 07:33N 69°39' E 018°57'0 0.0
2014-Apr-18 06:33N 69°39' E 018°57'0 0.0
2014-Apr-18 05:30N 69°39' E 018°57'0 0.0
2014-Apr-18 04:30N 69°39' E 018°57'0 0.0
2014-Apr-18 03:33N 69°39' E 018°57'0 0.0
2014-Apr-18 02:33N 69°39' E 018°57'0 0.0
2014-Apr-18 01:33N 69°39' E 018°57'0 0.0
2014-Apr-18 00:24N 69°39' E 018°57'0 0.0
2014-Apr-17 23:33N 69°39' E 018°57'0 0.0
2014-Apr-17 22:33N 69°39' E 018°57'0 0.0
2014-Apr-17 21:33N 69°39' E 018°57'0 0.0
2014-Apr-17 20:30N 69°39' E 018°57'0 0.0
2014-Apr-17 19:30N 69°39' E 018°57'0 0.0
2014-Apr-17 18:26N 69°39' E 018°57'0 0.0
2014-Apr-17 17:29N 69°39' E 018°57'0 0.0
2014-Apr-17 16:32N 69°39' E 018°57'0 0.0
2014-Apr-17 15:32N 69°39' E 018°57'0 0.0
2014-Apr-17 14:32N 69°39' E 018°57'0 0.0
2014-Apr-17 13:23N 69°39' E 018°57'0 0.0
2014-Apr-17 12:32N 69°39' E 018°57'0 0.0
2014-Apr-17 11:32N 69°39' E 018°57'0 0.0
2014-Apr-17 10:32N 69°39' E 018°57'0 0.0
2014-Apr-17 09:32N 69°39' E 018°57'0 0.0
2014-Apr-17 08:32N 69°39' E 018°57'0 0.0
2014-Apr-17 07:32N 69°39' E 018°57'0 0.0
2014-Apr-17 06:29N 69°39' E 018°57'0 0.0
2014-Apr-17 05:26N 69°39' E 018°57'0 0.0
2014-Apr-17 04:29N 69°39' E 018°57'0 0.0
2014-Apr-17 03:29N 69°39' E 018°57'0 0.0
2014-Apr-17 02:29N 69°39' E 018°57'0 0.0
2014-Apr-17 01:32N 69°39' E 018°57'0 0.0
2014-Apr-17 00:32N 69°39' E 018°57'0 0.0
2014-Apr-16 23:26N 69°39' E 018°57'0 0.0
2014-Apr-16 22:32N 69°39' E 018°57'0 0.0
2014-Apr-16 21:32N 69°39' E 018°57'4 0.8
2014-Apr-16 16:21N 69°42' E 019°03'7 3.2
2014-Apr-16 14:08N 69°36' E 018°53'3 4.3
2014-Apr-16 13:27N 69°39' E 018°57'0 0.0
2014-Apr-16 12:33N 69°39' E 018°57'0 0.0
2014-Apr-16 11:24N 69°39' E 018°57'0 0.0
2014-Apr-16 10:33N 69°39' E 018°57'0 0.0
2014-Apr-16 09:30N 69°39' E 018°57'0 0.0
2014-Apr-16 08:33N 69°39' E 018°57'0 0.0
2014-Apr-16 07:33N 69°39' E 018°57'4 1.6
2014-Apr-16 05:19N 69°36' E 018°52'4 4.5
2014-Apr-16 04:31N 69°39' E 018°57'0 0.0
2014-Apr-16 03:28N 69°39' E 018°57'0 0.0
2014-Apr-16 02:31N 69°39' E 018°57'0 0.0
2014-Apr-16 01:22N 69°39' E 018°57'0 0.0
2014-Apr-16 00:25N 69°39' E 018°57'0 0.0
2014-Apr-15 23:28N 69°39' E 018°57'0 0.0
2014-Apr-15 22:31N 69°39' E 018°57'0 0.0
2014-Apr-15 21:31N 69°39' E 018°57'0 0.0
2014-Apr-15 20:31N 69°39' E 018°57'0 0.0
2014-Apr-15 19:27N 69°39' E 018°57'0 0.0
2014-Apr-15 18:33N 69°39' E 018°57'4 1.0
2014-Apr-15 14:13N 69°42' E 019°04'4 2.5
2014-Apr-15 12:31N 69°39' E 018°57'0 0.0
2014-Apr-15 11:34N 69°39' E 018°57'0 0.0
2014-Apr-15 10:34N 69°39' E 018°57'0 0.0
2014-Apr-15 09:31N 69°39' E 018°57'0 0.0
2014-Apr-15 08:34N 69°39' E 018°57'0 0.0
2014-Apr-15 07:33N 69°39' E 018°57'5 0.4
2014-Apr-14 16:33N 69°44' E 019°04'5 5.2
2014-Apr-14 15:31N 69°39' E 018°57'0 0.0
2014-Apr-14 11:32N 69°39' E 018°57'0 0.0
2014-Apr-14 10:32N 69°39' E 018°57'0 0.0
2014-Apr-14 09:32N 69°39' E 018°57'0 0.0
2014-Apr-14 08:32N 69°39' E 018°57'0 0.0
2014-Apr-14 07:32N 69°39' E 018°57'0 0.0
2014-Apr-14 06:32N 69°39' E 018°57'0 0.0
2014-Apr-13 22:32N 69°39' E 018°57'0 0.0
2014-Apr-13 21:32N 69°39' E 018°57'0 0.0
2014-Apr-13 20:32N 69°39' E 018°57'6 2.8
2014-Apr-13 18:33N 69°34' E 018°48'  

Dump ship's entire track history

sailing weather and tide predictions

Fjordprinsessen — LJVE — position and weather